sensor_id;sensor_type;location;lat;lon;timestamp;P1;durP1;ratioP1;P2;durP2;ratioP2
3849;SDS011;1940;51.052;13.678;2023-10-08T00:00:31;8.00;;;3.70;;
3849;SDS011;1940;51.052;13.678;2023-10-08T00:03:14;10.07;;;3.83;;
3849;SDS011;1940;51.052;13.678;2023-10-08T00:05:42;10.73;;;3.93;;
3849;SDS011;1940;51.052;13.678;2023-10-08T00:08:08;8.50;;;4.10;;
3849;SDS011;1940;51.052;13.678;2023-10-08T00:10:38;8.50;;;4.03;;
3849;SDS011;1940;51.052;13.678;2023-10-08T00:13:10;6.60;;;3.77;;
3849;SDS011;1940;51.052;13.678;2023-10-08T00:15:38;11.30;;;3.70;;
3849;SDS011;1940;51.052;13.678;2023-10-08T00:18:07;7.03;;;3.40;;
3849;SDS011;1940;51.052;13.678;2023-10-08T00:20:36;8.37;;;3.63;;
3849;SDS011;1940;51.052;13.678;2023-10-08T00:23:12;13.47;;;4.43;;
3849;SDS011;1940;51.052;13.678;2023-10-08T00:25:40;7.50;;;3.20;;
3849;SDS011;1940;51.052;13.678;2023-10-08T00:28:07;8.77;;;3.70;;
3849;SDS011;1940;51.052;13.678;2023-10-08T00:30:40;8.60;;;3.80;;
3849;SDS011;1940;51.052;13.678;2023-10-08T00:33:09;8.13;;;4.20;;
3849;SDS011;1940;51.052;13.678;2023-10-08T00:35:40;6.53;;;3.40;;
3849;SDS011;1940;51.052;13.678;2023-10-08T00:38:07;8.73;;;4.17;;
3849;SDS011;1940;51.052;13.678;2023-10-08T00:40:40;7.03;;;3.80;;
3849;SDS011;1940;51.052;13.678;2023-10-08T00:43:30;8.07;;;4.30;;
3849;SDS011;1940;51.052;13.678;2023-10-08T00:46:00;8.63;;;3.80;;
3849;SDS011;1940;51.052;13.678;2023-10-08T00:48:26;7.23;;;3.90;;
3849;SDS011;1940;51.052;13.678;2023-10-08T00:50:59;15.80;;;4.50;;
3849;SDS011;1940;51.052;13.678;2023-10-08T00:53:34;10.77;;;3.97;;
3849;SDS011;1940;51.052;13.678;2023-10-08T00:56:04;7.03;;;3.47;;
3849;SDS011;1940;51.052;13.678;2023-10-08T00:58:37;9.23;;;4.10;;
3849;SDS011;1940;51.052;13.678;2023-10-08T01:01:02;7.90;;;4.37;;
3849;SDS011;1940;51.052;13.678;2023-10-08T01:03:29;18.50;;;4.30;;
3849;SDS011;1940;51.052;13.678;2023-10-08T01:06:00;7.17;;;4.07;;
3849;SDS011;1940;51.052;13.678;2023-10-08T01:08:27;7.43;;;3.77;;
3849;SDS011;1940;51.052;13.678;2023-10-08T01:11:16;6.70;;;4.13;;
3849;SDS011;1940;51.052;13.678;2023-10-08T01:13:42;12.37;;;4.50;;
3849;SDS011;1940;51.052;13.678;2023-10-08T01:16:11;11.63;;;4.37;;
3849;SDS011;1940;51.052;13.678;2023-10-08T01:18:36;7.27;;;3.67;;
3849;SDS011;1940;51.052;13.678;2023-10-08T01:21:07;11.73;;;4.80;;
3849;SDS011;1940;51.052;13.678;2023-10-08T01:23:36;7.37;;;4.13;;
3849;SDS011;1940;51.052;13.678;2023-10-08T01:26:03;10.13;;;4.77;;
3849;SDS011;1940;51.052;13.678;2023-10-08T01:28:36;14.03;;;4.80;;
3849;SDS011;1940;51.052;13.678;2023-10-08T01:31:02;13.20;;;4.60;;
3849;SDS011;1940;51.052;13.678;2023-10-08T01:33:29;12.30;;;4.50;;
3849;SDS011;1940;51.052;13.678;2023-10-08T01:36:03;8.53;;;5.40;;
3849;SDS011;1940;51.052;13.678;2023-10-08T01:38:30;11.50;;;4.97;;
3849;SDS011;1940;51.052;13.678;2023-10-08T01:40:57;9.80;;;5.40;;
3849;SDS011;1940;51.052;13.678;2023-10-08T01:43:28;9.73;;;6.00;;
3849;SDS011;1940;51.052;13.678;2023-10-08T01:45:54;14.50;;;7.30;;
3849;SDS011;1940;51.052;13.678;2023-10-08T01:48:20;12.30;;;7.97;;
3849;SDS011;1940;51.052;13.678;2023-10-08T01:50:56;17.53;;;8.47;;
3849;SDS011;1940;51.052;13.678;2023-10-08T01:53:26;9.70;;;5.70;;
3849;SDS011;1940;51.052;13.678;2023-10-08T01:55:52;8.00;;;4.57;;
3849;SDS011;1940;51.052;13.678;2023-10-08T01:58:19;3.30;;;1.83;;
3849;SDS011;1940;51.052;13.678;2023-10-08T02:00:48;2.00;;;1.03;;
3849;SDS011;1940;51.052;13.678;2023-10-08T02:03:15;1.20;;;0.80;;
3849;SDS011;1940;51.052;13.678;2023-10-08T02:05:43;1.50;;;0.70;;
3849;SDS011;1940;51.052;13.678;2023-10-08T02:08:10;1.10;;;0.70;;
3849;SDS011;1940;51.052;13.678;2023-10-08T02:10:41;1.00;;;0.67;;
3849;SDS011;1940;51.052;13.678;2023-10-08T02:13:08;1.10;;;0.67;;
3849;SDS011;1940;51.052;13.678;2023-10-08T02:15:40;1.10;;;0.73;;
3849;SDS011;1940;51.052;13.678;2023-10-08T02:18:08;1.00;;;0.60;;
3849;SDS011;1940;51.052;13.678;2023-10-08T02:20:33;1.00;;;0.67;;
3849;SDS011;1940;51.052;13.678;2023-10-08T02:22:59;1.00;;;0.60;;
3849;SDS011;1940;51.052;13.678;2023-10-08T02:25:25;0.90;;;0.60;;
3849;SDS011;1940;51.052;13.678;2023-10-08T02:27:50;0.90;;;0.60;;
3849;SDS011;1940;51.052;13.678;2023-10-08T02:30:16;1.00;;;0.60;;
3849;SDS011;1940;51.052;13.678;2023-10-08T02:32:43;0.90;;;0.60;;
3849;SDS011;1940;51.052;13.678;2023-10-08T02:35:09;1.10;;;0.60;;
3849;SDS011;1940;51.052;13.678;2023-10-08T02:37:36;0.90;;;0.60;;
3849;SDS011;1940;51.052;13.678;2023-10-08T02:40:05;0.90;;;0.60;;
3849;SDS011;1940;51.052;13.678;2023-10-08T02:42:44;0.90;;;0.60;;
3849;SDS011;1940;51.052;13.678;2023-10-08T02:45:13;0.90;;;0.60;;
3849;SDS011;1940;51.052;13.678;2023-10-08T02:47:42;0.90;;;0.60;;
3849;SDS011;1940;51.052;13.678;2023-10-08T02:50:10;1.10;;;0.70;;
3849;SDS011;1940;51.052;13.678;2023-10-08T02:52:41;1.00;;;0.70;;
3849;SDS011;1940;51.052;13.678;2023-10-08T02:55:09;1.30;;;0.60;;
3849;SDS011;1940;51.052;13.678;2023-10-08T02:57:48;1.00;;;0.60;;
3849;SDS011;1940;51.052;13.678;2023-10-08T03:00:15;1.00;;;0.63;;
3849;SDS011;1940;51.052;13.678;2023-10-08T03:02:44;1.00;;;0.60;;
3849;SDS011;1940;51.052;13.678;2023-10-08T03:05:11;1.10;;;0.60;;
3849;SDS011;1940;51.052;13.678;2023-10-08T03:07:38;2.03;;;0.70;;
3849;SDS011;1940;51.052;13.678;2023-10-08T03:10:05;1.00;;;0.60;;
3849;SDS011;1940;51.052;13.678;2023-10-08T03:12:32;1.00;;;0.60;;
3849;SDS011;1940;51.052;13.678;2023-10-08T03:15:01;0.90;;;0.60;;
3849;SDS011;1940;51.052;13.678;2023-10-08T03:17:53;1.00;;;0.60;;
3849;SDS011;1940;51.052;13.678;2023-10-08T03:20:22;0.90;;;0.50;;
3849;SDS011;1940;51.052;13.678;2023-10-08T03:23:06;1.00;;;0.60;;
3849;SDS011;1940;51.052;13.678;2023-10-08T03:25:51;0.93;;;0.63;;
3849;SDS011;1940;51.052;13.678;2023-10-08T03:28:24;0.90;;;0.60;;
3849;SDS011;1940;51.052;13.678;2023-10-08T03:30:50;1.00;;;0.60;;
3849;SDS011;1940;51.052;13.678;2023-10-08T03:33:31;1.00;;;0.60;;
3849;SDS011;1940;51.052;13.678;2023-10-08T03:35:59;1.20;;;0.60;;
3849;SDS011;1940;51.052;13.678;2023-10-08T03:38:34;1.00;;;0.60;;
3849;SDS011;1940;51.052;13.678;2023-10-08T03:41:11;1.00;;;0.60;;
3849;SDS011;1940;51.052;13.678;2023-10-08T03:43:44;0.90;;;0.50;;
3849;SDS011;1940;51.052;13.678;2023-10-08T03:46:29;1.13;;;0.60;;
3849;SDS011;1940;51.052;13.678;2023-10-08T03:48:56;1.77;;;0.60;;
3849;SDS011;1940;51.052;13.678;2023-10-08T03:51:23;1.40;;;0.60;;
3849;SDS011;1940;51.052;13.678;2023-10-08T03:53:52;1.40;;;0.63;;
3849;SDS011;1940;51.052;13.678;2023-10-08T03:56:31;1.27;;;0.70;;
3849;SDS011;1940;51.052;13.678;2023-10-08T03:59:01;1.80;;;0.60;;
3849;SDS011;1940;51.052;13.678;2023-10-08T04:01:37;1.83;;;0.80;;
3849;SDS011;1940;51.052;13.678;2023-10-08T04:04:19;1.40;;;0.80;;
3849;SDS011;1940;51.052;13.678;2023-10-08T04:06:47;1.37;;;0.80;;
3849;SDS011;1940;51.052;13.678;2023-10-08T04:09:14;1.10;;;0.70;;
3849;SDS011;1940;51.052;13.678;2023-10-08T04:11:49;4.10;;;1.17;;
3849;SDS011;1940;51.052;13.678;2023-10-08T04:14:21;6.33;;;1.70;;
3849;SDS011;1940;51.052;13.678;2023-10-08T04:16:48;2.70;;;1.50;;
3849;SDS011;1940;51.052;13.678;2023-10-08T04:19:17;11.97;;;2.30;;
3849;SDS011;1940;51.052;13.678;2023-10-08T04:21:45;8.10;;;1.80;;
3849;SDS011;1940;51.052;13.678;2023-10-08T04:24:18;6.73;;;1.87;;
3849;SDS011;1940;51.052;13.678;2023-10-08T04:26:53;6.57;;;1.93;;
3849;SDS011;1940;51.052;13.678;2023-10-08T04:29:21;6.70;;;2.00;;
3849;SDS011;1940;51.052;13.678;2023-10-08T04:31:47;9.93;;;2.00;;
3849;SDS011;1940;51.052;13.678;2023-10-08T04:34:19;5.93;;;2.23;;
3849;SDS011;1940;51.052;13.678;2023-10-08T04:36:48;4.67;;;1.73;;
3849;SDS011;1940;51.052;13.678;2023-10-08T04:39:19;3.70;;;1.93;;
3849;SDS011;1940;51.052;13.678;2023-10-08T04:41:51;5.27;;;2.07;;
3849;SDS011;1940;51.052;13.678;2023-10-08T04:44:23;5.20;;;1.90;;
3849;SDS011;1940;51.052;13.678;2023-10-08T04:46:50;7.87;;;1.70;;
3849;SDS011;1940;51.052;13.678;2023-10-08T04:49:24;6.97;;;1.90;;
3849;SDS011;1940;51.052;13.678;2023-10-08T04:51:58;5.73;;;1.93;;
3849;SDS011;1940;51.052;13.678;2023-10-08T04:54:39;4.37;;;1.60;;
3849;SDS011;1940;51.052;13.678;2023-10-08T04:57:06;5.93;;;1.90;;
3849;SDS011;1940;51.052;13.678;2023-10-08T04:59:40;5.30;;;2.00;;
3849;SDS011;1940;51.052;13.678;2023-10-08T05:02:06;6.20;;;1.90;;
3849;SDS011;1940;51.052;13.678;2023-10-08T05:04:47;7.13;;;2.40;;
3849;SDS011;1940;51.052;13.678;2023-10-08T05:07:16;5.83;;;2.10;;
3849;SDS011;1940;51.052;13.678;2023-10-08T05:09:51;7.00;;;2.03;;
3849;SDS011;1940;51.052;13.678;2023-10-08T05:12:29;3.30;;;1.70;;
3849;SDS011;1940;51.052;13.678;2023-10-08T05:14:57;4.03;;;1.30;;
3849;SDS011;1940;51.052;13.678;2023-10-08T05:17:41;2.60;;;1.30;;
3849;SDS011;1940;51.052;13.678;2023-10-08T05:20:22;4.00;;;1.47;;
3849;SDS011;1940;51.052;13.678;2023-10-08T05:23:08;7.30;;;1.60;;
3849;SDS011;1940;51.052;13.678;2023-10-08T05:25:54;6.57;;;1.40;;
3849;SDS011;1940;51.052;13.678;2023-10-08T05:28:30;3.60;;;1.50;;
3849;SDS011;1940;51.052;13.678;2023-10-08T05:30:55;4.70;;;1.40;;
3849;SDS011;1940;51.052;13.678;2023-10-08T05:33:46;3.53;;;1.40;;
3849;SDS011;1940;51.052;13.678;2023-10-08T05:36:30;3.40;;;1.50;;
3849;SDS011;1940;51.052;13.678;2023-10-08T05:39:14;3.00;;;1.27;;
3849;SDS011;1940;51.052;13.678;2023-10-08T05:41:49;3.23;;;1.50;;
3849;SDS011;1940;51.052;13.678;2023-10-08T05:44:38;2.73;;;1.30;;
3849;SDS011;1940;51.052;13.678;2023-10-08T05:47:26;6.23;;;1.70;;
3849;SDS011;1940;51.052;13.678;2023-10-08T05:50:11;2.87;;;1.47;;
3849;SDS011;1940;51.052;13.678;2023-10-08T05:52:43;2.40;;;1.40;;
3849;SDS011;1940;51.052;13.678;2023-10-08T05:55:29;4.63;;;1.67;;
3849;SDS011;1940;51.052;13.678;2023-10-08T05:58:12;3.30;;;1.33;;
3849;SDS011;1940;51.052;13.678;2023-10-08T06:00:44;3.53;;;1.63;;
3849;SDS011;1940;51.052;13.678;2023-10-08T06:03:27;4.50;;;1.70;;
3849;SDS011;1940;51.052;13.678;2023-10-08T06:06:05;2.47;;;1.20;;
3849;SDS011;1940;51.052;13.678;2023-10-08T06:08:38;5.10;;;1.57;;
3849;SDS011;1940;51.052;13.678;2023-10-08T06:11:15;5.60;;;1.70;;
3849;SDS011;1940;51.052;13.678;2023-10-08T06:14:07;2.00;;;1.30;;
3849;SDS011;1940;51.052;13.678;2023-10-08T06:16:44;2.40;;;1.10;;
3849;SDS011;1940;51.052;13.678;2023-10-08T06:19:12;5.43;;;1.63;;
3849;SDS011;1940;51.052;13.678;2023-10-08T06:21:39;3.80;;;1.67;;
3849;SDS011;1940;51.052;13.678;2023-10-08T06:24:07;2.97;;;1.27;;
3849;SDS011;1940;51.052;13.678;2023-10-08T06:26:39;4.07;;;1.50;;
3849;SDS011;1940;51.052;13.678;2023-10-08T06:29:11;4.07;;;1.20;;
3849;SDS011;1940;51.052;13.678;2023-10-08T06:32:01;2.13;;;1.43;;
3849;SDS011;1940;51.052;13.678;2023-10-08T06:34:30;3.07;;;1.37;;
3849;SDS011;1940;51.052;13.678;2023-10-08T06:36:58;1.70;;;1.10;;
3849;SDS011;1940;51.052;13.678;2023-10-08T06:39:26;3.50;;;1.23;;
3849;SDS011;1940;51.052;13.678;2023-10-08T06:41:58;3.17;;;1.50;;
3849;SDS011;1940;51.052;13.678;2023-10-08T06:44:24;4.07;;;1.60;;
3849;SDS011;1940;51.052;13.678;2023-10-08T06:46:51;5.00;;;2.07;;
3849;SDS011;1940;51.052;13.678;2023-10-08T06:49:23;4.00;;;1.50;;
3849;SDS011;1940;51.052;13.678;2023-10-08T06:51:49;3.80;;;1.53;;
3849;SDS011;1940;51.052;13.678;2023-10-08T06:54:16;6.20;;;1.53;;
3849;SDS011;1940;51.052;13.678;2023-10-08T06:56:43;2.27;;;1.40;;
3849;SDS011;1940;51.052;13.678;2023-10-08T06:59:12;3.50;;;1.80;;
3849;SDS011;1940;51.052;13.678;2023-10-08T07:01:38;4.60;;;1.60;;
3849;SDS011;1940;51.052;13.678;2023-10-08T07:04:07;3.07;;;1.80;;
3849;SDS011;1940;51.052;13.678;2023-10-08T07:06:39;1.97;;;1.43;;
3849;SDS011;1940;51.052;13.678;2023-10-08T07:09:08;2.10;;;1.40;;
3849;SDS011;1940;51.052;13.678;2023-10-08T07:11:47;2.47;;;1.20;;
3849;SDS011;1940;51.052;13.678;2023-10-08T07:14:20;3.10;;;1.60;;
3849;SDS011;1940;51.052;13.678;2023-10-08T07:16:52;5.30;;;1.50;;
3849;SDS011;1940;51.052;13.678;2023-10-08T07:19:19;4.60;;;1.70;;
3849;SDS011;1940;51.052;13.678;2023-10-08T07:21:48;4.13;;;2.17;;
3849;SDS011;1940;51.052;13.678;2023-10-08T07:24:19;7.33;;;2.50;;
3849;SDS011;1940;51.052;13.678;2023-10-08T07:26:46;5.27;;;2.43;;
3849;SDS011;1940;51.052;13.678;2023-10-08T07:29:14;5.67;;;2.63;;
3849;SDS011;1940;51.052;13.678;2023-10-08T07:31:44;3.97;;;2.40;;
3849;SDS011;1940;51.052;13.678;2023-10-08T07:34:14;4.47;;;1.90;;
3849;SDS011;1940;51.052;13.678;2023-10-08T07:36:47;2.23;;;1.73;;
3849;SDS011;1940;51.052;13.678;2023-10-08T07:39:16;3.50;;;1.80;;
3849;SDS011;1940;51.052;13.678;2023-10-08T07:41:51;8.10;;;1.60;;
3849;SDS011;1940;51.052;13.678;2023-10-08T07:44:19;2.67;;;1.40;;
3849;SDS011;1940;51.052;13.678;2023-10-08T07:46:51;3.37;;;1.50;;
3849;SDS011;1940;51.052;13.678;2023-10-08T07:49:21;3.80;;;1.20;;
3849;SDS011;1940;51.052;13.678;2023-10-08T07:51:55;2.87;;;1.10;;
3849;SDS011;1940;51.052;13.678;2023-10-08T07:54:22;5.27;;;1.40;;
3849;SDS011;1940;51.052;13.678;2023-10-08T07:56:49;7.47;;;1.13;;
3849;SDS011;1940;51.052;13.678;2023-10-08T07:59:24;2.70;;;1.37;;
3849;SDS011;1940;51.052;13.678;2023-10-08T08:01:50;3.67;;;1.40;;
3849;SDS011;1940;51.052;13.678;2023-10-08T08:04:17;2.50;;;1.47;;
3849;SDS011;1940;51.052;13.678;2023-10-08T08:06:49;2.30;;;1.30;;
3849;SDS011;1940;51.052;13.678;2023-10-08T08:09:16;5.50;;;3.17;;
3849;SDS011;1940;51.052;13.678;2023-10-08T08:11:48;6.93;;;2.70;;
3849;SDS011;1940;51.052;13.678;2023-10-08T08:14:15;7.50;;;2.30;;
3849;SDS011;1940;51.052;13.678;2023-10-08T08:16:42;4.90;;;2.10;;
3849;SDS011;1940;51.052;13.678;2023-10-08T08:19:12;10.73;;;2.80;;
3849;SDS011;1940;51.052;13.678;2023-10-08T08:21:40;7.47;;;2.80;;
3849;SDS011;1940;51.052;13.678;2023-10-08T08:24:10;6.53;;;2.97;;
3849;SDS011;1940;51.052;13.678;2023-10-08T08:26:38;6.00;;;2.83;;
3849;SDS011;1940;51.052;13.678;2023-10-08T08:29:05;7.43;;;3.77;;
3849;SDS011;1940;51.052;13.678;2023-10-08T08:31:34;7.43;;;2.90;;
3849;SDS011;1940;51.052;13.678;2023-10-08T08:34:01;3.40;;;2.33;;
3849;SDS011;1940;51.052;13.678;2023-10-08T08:36:28;6.87;;;3.30;;
3849;SDS011;1940;51.052;13.678;2023-10-08T08:38:56;7.67;;;3.50;;
3849;SDS011;1940;51.052;13.678;2023-10-08T08:41:23;7.70;;;3.20;;
3849;SDS011;1940;51.052;13.678;2023-10-08T08:43:50;6.93;;;2.97;;
3849;SDS011;1940;51.052;13.678;2023-10-08T08:46:33;7.90;;;4.00;;
3849;SDS011;1940;51.052;13.678;2023-10-08T08:49:01;7.87;;;3.80;;
3849;SDS011;1940;51.052;13.678;2023-10-08T08:51:29;7.03;;;3.30;;
3849;SDS011;1940;51.052;13.678;2023-10-08T08:53:55;5.10;;;3.03;;
3849;SDS011;1940;51.052;13.678;2023-10-08T08:56:21;8.73;;;3.60;;
3849;SDS011;1940;51.052;13.678;2023-10-08T08:58:47;5.30;;;2.60;;
3849;SDS011;1940;51.052;13.678;2023-10-08T09:01:14;5.43;;;2.60;;
3849;SDS011;1940;51.052;13.678;2023-10-08T09:03:42;5.47;;;2.10;;
3849;SDS011;1940;51.052;13.678;2023-10-08T09:06:08;6.63;;;2.20;;
3849;SDS011;1940;51.052;13.678;2023-10-08T09:08:37;3.80;;;2.10;;
3849;SDS011;1940;51.052;13.678;2023-10-08T09:11:07;10.43;;;2.33;;
3849;SDS011;1940;51.052;13.678;2023-10-08T09:13:33;7.80;;;2.10;;
3849;SDS011;1940;51.052;13.678;2023-10-08T09:16:06;4.90;;;2.80;;
3849;SDS011;1940;51.052;13.678;2023-10-08T09:18:36;6.17;;;2.03;;
3849;SDS011;1940;51.052;13.678;2023-10-08T09:21:08;7.50;;;2.27;;
3849;SDS011;1940;51.052;13.678;2023-10-08T09:23:39;4.90;;;1.90;;
3849;SDS011;1940;51.052;13.678;2023-10-08T09:26:08;5.97;;;2.30;;
3849;SDS011;1940;51.052;13.678;2023-10-08T09:28:34;5.13;;;2.50;;
3849;SDS011;1940;51.052;13.678;2023-10-08T09:31:03;5.47;;;2.30;;
3849;SDS011;1940;51.052;13.678;2023-10-08T09:36:38;10.83;;;2.10;;
3849;SDS011;1940;51.052;13.678;2023-10-08T09:42:11;8.73;;;2.43;;
3849;SDS011;1940;51.052;13.678;2023-10-08T09:44:39;8.90;;;2.30;;
3849;SDS011;1940;51.052;13.678;2023-10-08T09:49:36;8.20;;;4.03;;
3849;SDS011;1940;51.052;13.678;2023-10-08T09:52:06;6.03;;;2.80;;
3849;SDS011;1940;51.052;13.678;2023-10-08T09:54:39;7.37;;;2.83;;
3849;SDS011;1940;51.052;13.678;2023-10-08T09:57:08;11.47;;;2.40;;
3849;SDS011;1940;51.052;13.678;2023-10-08T09:59:35;6.10;;;3.17;;
3849;SDS011;1940;51.052;13.678;2023-10-08T10:02:03;6.87;;;2.50;;
3849;SDS011;1940;51.052;13.678;2023-10-08T10:04:30;6.23;;;2.40;;
3849;SDS011;1940;51.052;13.678;2023-10-08T10:07:07;6.03;;;2.50;;
3849;SDS011;1940;51.052;13.678;2023-10-08T10:09:37;3.70;;;2.63;;
3849;SDS011;1940;51.052;13.678;2023-10-08T10:12:05;6.60;;;2.87;;
3849;SDS011;1940;51.052;13.678;2023-10-08T10:14:41;9.80;;;2.40;;
3849;SDS011;1940;51.052;13.678;2023-10-08T10:17:08;7.90;;;2.93;;
3849;SDS011;1940;51.052;13.678;2023-10-08T10:19:39;4.40;;;2.00;;
3849;SDS011;1940;51.052;13.678;2023-10-08T10:22:10;8.00;;;2.20;;
3849;SDS011;1940;51.052;13.678;2023-10-08T10:24:39;3.53;;;1.97;;
3849;SDS011;1940;51.052;13.678;2023-10-08T10:27:11;5.83;;;2.43;;
3849;SDS011;1940;51.052;13.678;2023-10-08T10:29:39;6.53;;;2.20;;
3849;SDS011;1940;51.052;13.678;2023-10-08T10:32:08;5.70;;;2.50;;
3849;SDS011;1940;51.052;13.678;2023-10-08T10:34:38;5.50;;;2.30;;
3849;SDS011;1940;51.052;13.678;2023-10-08T10:37:04;8.47;;;2.27;;
3849;SDS011;1940;51.052;13.678;2023-10-08T10:39:52;13.10;;;2.60;;
3849;SDS011;1940;51.052;13.678;2023-10-08T10:42:24;10.80;;;2.40;;
3849;SDS011;1940;51.052;13.678;2023-10-08T10:44:53;7.07;;;2.60;;
3849;SDS011;1940;51.052;13.678;2023-10-08T10:47:20;3.70;;;2.17;;
3849;SDS011;1940;51.052;13.678;2023-10-08T10:49:47;3.37;;;2.27;;
3849;SDS011;1940;51.052;13.678;2023-10-08T10:52:17;4.70;;;2.60;;
3849;SDS011;1940;51.052;13.678;2023-10-08T10:55:19;10.30;;;2.30;;
3849;SDS011;1940;51.052;13.678;2023-10-08T10:57:56;8.60;;;2.50;;
3849;SDS011;1940;51.052;13.678;2023-10-08T11:00:31;4.40;;;2.33;;
3849;SDS011;1940;51.052;13.678;2023-10-08T11:02:57;6.30;;;2.73;;
3849;SDS011;1940;51.052;13.678;2023-10-08T11:05:35;4.73;;;2.40;;
3849;SDS011;1940;51.052;13.678;2023-10-08T11:08:05;3.97;;;2.60;;
3849;SDS011;1940;51.052;13.678;2023-10-08T11:10:41;5.07;;;2.17;;
3849;SDS011;1940;51.052;13.678;2023-10-08T11:13:18;5.83;;;2.07;;
3849;SDS011;1940;51.052;13.678;2023-10-08T11:15:45;5.33;;;1.93;;
3849;SDS011;1940;51.052;13.678;2023-10-08T11:18:17;5.80;;;2.60;;
3849;SDS011;1940;51.052;13.678;2023-10-08T11:20:45;4.00;;;2.27;;
3849;SDS011;1940;51.052;13.678;2023-10-08T11:26:03;7.80;;;2.30;;
3849;SDS011;1940;51.052;13.678;2023-10-08T11:28:30;3.43;;;2.00;;
3849;SDS011;1940;51.052;13.678;2023-10-08T11:30:59;5.50;;;1.73;;
3849;SDS011;1940;51.052;13.678;2023-10-08T11:33:33;6.77;;;2.20;;
3849;SDS011;1940;51.052;13.678;2023-10-08T11:36:19;6.03;;;1.80;;
3849;SDS011;1940;51.052;13.678;2023-10-08T11:38:52;4.60;;;1.93;;
3849;SDS011;1940;51.052;13.678;2023-10-08T11:41:26;6.63;;;2.03;;
3849;SDS011;1940;51.052;13.678;2023-10-08T11:43:56;4.83;;;2.03;;
3849;SDS011;1940;51.052;13.678;2023-10-08T11:46:23;3.67;;;2.10;;
3849;SDS011;1940;51.052;13.678;2023-10-08T11:48:53;3.43;;;1.73;;
3849;SDS011;1940;51.052;13.678;2023-10-08T11:51:23;6.00;;;2.37;;
3849;SDS011;1940;51.052;13.678;2023-10-08T11:53:49;2.83;;;1.97;;
3849;SDS011;1940;51.052;13.678;2023-10-08T11:56:15;5.33;;;2.10;;
3849;SDS011;1940;51.052;13.678;2023-10-08T12:02:02;8.20;;;2.47;;
3849;SDS011;1940;51.052;13.678;2023-10-08T12:17:56;8.27;;;2.20;;
3849;SDS011;1940;51.052;13.678;2023-10-08T12:20:36;5.17;;;2.27;;
3849;SDS011;1940;51.052;13.678;2023-10-08T12:23:06;6.30;;;1.90;;
3849;SDS011;1940;51.052;13.678;2023-10-08T12:25:35;9.33;;;2.00;;
3849;SDS011;1940;51.052;13.678;2023-10-08T12:28:02;9.83;;;2.00;;
3849;SDS011;1940;51.052;13.678;2023-10-08T12:33:52;7.73;;;2.27;;
3849;SDS011;1940;51.052;13.678;2023-10-08T12:36:25;5.40;;;2.17;;
3849;SDS011;1940;51.052;13.678;2023-10-08T12:38:52;6.53;;;1.80;;
3849;SDS011;1940;51.052;13.678;2023-10-08T12:41:22;5.40;;;2.17;;
3849;SDS011;1940;51.052;13.678;2023-10-08T12:43:50;5.87;;;2.07;;
3849;SDS011;1940;51.052;13.678;2023-10-08T12:46:17;7.10;;;1.97;;
3849;SDS011;1940;51.052;13.678;2023-10-08T12:48:44;4.47;;;1.83;;
3849;SDS011;1940;51.052;13.678;2023-10-08T12:51:14;12.20;;;2.10;;
3849;SDS011;1940;51.052;13.678;2023-10-08T12:53:40;2.40;;;1.73;;
3849;SDS011;1940;51.052;13.678;2023-10-08T12:56:09;4.60;;;1.97;;
3849;SDS011;1940;51.052;13.678;2023-10-08T12:58:42;3.67;;;1.80;;
3849;SDS011;1940;51.052;13.678;2023-10-08T13:01:13;3.57;;;1.80;;
3849;SDS011;1940;51.052;13.678;2023-10-08T13:03:42;4.43;;;1.70;;
3849;SDS011;1940;51.052;13.678;2023-10-08T13:06:13;4.20;;;2.03;;
3849;SDS011;1940;51.052;13.678;2023-10-08T13:08:46;3.80;;;2.10;;
3849;SDS011;1940;51.052;13.678;2023-10-08T13:11:22;6.13;;;1.90;;
3849;SDS011;1940;51.052;13.678;2023-10-08T13:13:49;3.90;;;1.70;;
3849;SDS011;1940;51.052;13.678;2023-10-08T13:16:21;8.30;;;1.90;;
3849;SDS011;1940;51.052;13.678;2023-10-08T13:18:48;4.40;;;2.00;;
3849;SDS011;1940;51.052;13.678;2023-10-08T13:21:14;3.80;;;1.80;;
3849;SDS011;1940;51.052;13.678;2023-10-08T13:23:40;4.43;;;2.10;;
3849;SDS011;1940;51.052;13.678;2023-10-08T13:26:06;5.50;;;2.60;;
3849;SDS011;1940;51.052;13.678;2023-10-08T13:28:32;3.83;;;1.87;;
3849;SDS011;1940;51.052;13.678;2023-10-08T13:31:01;3.80;;;1.73;;
3849;SDS011;1940;51.052;13.678;2023-10-08T13:33:37;5.10;;;1.90;;
3849;SDS011;1940;51.052;13.678;2023-10-08T13:36:04;4.10;;;2.00;;
3849;SDS011;1940;51.052;13.678;2023-10-08T13:38:33;4.00;;;2.17;;
3849;SDS011;1940;51.052;13.678;2023-10-08T13:40:59;4.30;;;2.10;;
3849;SDS011;1940;51.052;13.678;2023-10-08T13:43:28;4.23;;;1.90;;
3849;SDS011;1940;51.052;13.678;2023-10-08T13:46:03;5.23;;;1.90;;
3849;SDS011;1940;51.052;13.678;2023-10-08T13:48:31;4.73;;;1.83;;
3849;SDS011;1940;51.052;13.678;2023-10-08T13:50:59;3.37;;;1.80;;
3849;SDS011;1940;51.052;13.678;2023-10-08T13:53:25;4.10;;;1.83;;
3849;SDS011;1940;51.052;13.678;2023-10-08T13:55:55;3.30;;;1.70;;
3849;SDS011;1940;51.052;13.678;2023-10-08T13:58:21;10.30;;;2.80;;
3849;SDS011;1940;51.052;13.678;2023-10-08T14:00:47;5.70;;;2.07;;
3849;SDS011;1940;51.052;13.678;2023-10-08T14:03:15;5.17;;;2.00;;
3849;SDS011;1940;51.052;13.678;2023-10-08T14:05:46;5.40;;;1.93;;
3849;SDS011;1940;51.052;13.678;2023-10-08T14:08:15;5.33;;;2.30;;
3849;SDS011;1940;51.052;13.678;2023-10-08T14:10:42;6.23;;;2.70;;
3849;SDS011;1940;51.052;13.678;2023-10-08T14:13:08;8.30;;;3.10;;
3849;SDS011;1940;51.052;13.678;2023-10-08T14:15:34;5.93;;;2.63;;
3849;SDS011;1940;51.052;13.678;2023-10-08T14:18:07;5.37;;;2.43;;
3849;SDS011;1940;51.052;13.678;2023-10-08T14:20:33;4.37;;;1.97;;
3849;SDS011;1940;51.052;13.678;2023-10-08T14:22:59;7.63;;;2.10;;
3849;SDS011;1940;51.052;13.678;2023-10-08T14:25:27;3.37;;;2.00;;
3849;SDS011;1940;51.052;13.678;2023-10-08T14:27:54;7.03;;;1.80;;
3849;SDS011;1940;51.052;13.678;2023-10-08T14:30:29;4.77;;;1.87;;
3849;SDS011;1940;51.052;13.678;2023-10-08T14:32:56;3.10;;;1.83;;
3849;SDS011;1940;51.052;13.678;2023-10-08T14:35:23;4.00;;;2.00;;
3849;SDS011;1940;51.052;13.678;2023-10-08T14:38:07;3.60;;;1.93;;
3849;SDS011;1940;51.052;13.678;2023-10-08T14:40:51;7.97;;;1.83;;
3849;SDS011;1940;51.052;13.678;2023-10-08T14:43:35;7.03;;;2.93;;
3849;SDS011;1940;51.052;13.678;2023-10-08T14:46:03;3.40;;;1.80;;
3849;SDS011;1940;51.052;13.678;2023-10-08T14:48:31;3.50;;;2.03;;
3849;SDS011;1940;51.052;13.678;2023-10-08T14:51:00;4.80;;;2.67;;
3849;SDS011;1940;51.052;13.678;2023-10-08T14:53:28;5.40;;;2.40;;
3849;SDS011;1940;51.052;13.678;2023-10-08T14:55:56;5.17;;;2.30;;
3849;SDS011;1940;51.052;13.678;2023-10-08T14:58:22;6.30;;;2.70;;
3849;SDS011;1940;51.052;13.678;2023-10-08T15:00:50;10.37;;;2.00;;
3849;SDS011;1940;51.052;13.678;2023-10-08T15:03:19;3.80;;;2.33;;
3849;SDS011;1940;51.052;13.678;2023-10-08T15:05:45;4.87;;;2.30;;
3849;SDS011;1940;51.052;13.678;2023-10-08T15:08:12;9.60;;;2.67;;
3849;SDS011;1940;51.052;13.678;2023-10-08T15:10:39;7.77;;;2.67;;
3849;SDS011;1940;51.052;13.678;2023-10-08T15:13:06;5.67;;;2.70;;
3849;SDS011;1940;51.052;13.678;2023-10-08T15:15:32;7.03;;;2.60;;
3849;SDS011;1940;51.052;13.678;2023-10-08T15:18:00;4.40;;;2.70;;
3849;SDS011;1940;51.052;13.678;2023-10-08T15:20:28;6.27;;;2.93;;
3849;SDS011;1940;51.052;13.678;2023-10-08T15:22:57;3.73;;;2.20;;
3849;SDS011;1940;51.052;13.678;2023-10-08T15:25:23;8.53;;;2.60;;
3849;SDS011;1940;51.052;13.678;2023-10-08T15:27:48;4.13;;;2.00;;
3849;SDS011;1940;51.052;13.678;2023-10-08T15:30:15;7.30;;;3.07;;
3849;SDS011;1940;51.052;13.678;2023-10-08T15:32:43;4.90;;;2.43;;
3849;SDS011;1940;51.052;13.678;2023-10-08T15:35:11;7.30;;;3.07;;
3849;SDS011;1940;51.052;13.678;2023-10-08T15:37:39;5.50;;;2.53;;
3849;SDS011;1940;51.052;13.678;2023-10-08T15:40:05;8.50;;;3.23;;
3849;SDS011;1940;51.052;13.678;2023-10-08T15:42:33;6.70;;;3.17;;
3849;SDS011;1940;51.052;13.678;2023-10-08T15:45:00;7.07;;;3.00;;
3849;SDS011;1940;51.052;13.678;2023-10-08T15:47:30;7.57;;;2.90;;
3849;SDS011;1940;51.052;13.678;2023-10-08T15:49:56;6.90;;;3.07;;
3849;SDS011;1940;51.052;13.678;2023-10-08T15:52:26;6.77;;;3.47;;